sensor_id;sensor_type;location;lat;lon;timestamp;P1;durP1;ratioP1;P2;durP2;ratioP2
54557;SDS011;40452;50.080;20.040;2023-07-24T02:49:38;9.32;;;3.72;;
54557;SDS011;40452;50.080;20.040;2023-07-24T02:52:04;6.47;;;3.30;;
54557;SDS011;40452;50.080;20.040;2023-07-24T02:54:30;5.28;;;3.22;;
54557;SDS011;40452;50.080;20.040;2023-07-24T02:56:56;5.28;;;3.20;;
54557;SDS011;40452;50.080;20.040;2023-07-24T02:59:23;6.55;;;3.60;;
54557;SDS011;40452;50.080;20.040;2023-07-24T03:01:48;4.80;;;3.60;;
54557;SDS011;40452;50.080;20.040;2023-07-24T03:04:14;7.15;;;3.63;;
54557;SDS011;40452;50.080;20.040;2023-07-24T03:06:39;7.03;;;3.83;;
54557;SDS011;40452;50.080;20.040;2023-07-24T03:09:05;7.40;;;3.92;;
54557;SDS011;40452;50.080;20.040;2023-07-24T03:11:31;6.63;;;3.63;;
54557;SDS011;40452;50.080;20.040;2023-07-24T03:13:56;6.28;;;3.83;;
54557;SDS011;40452;50.080;20.040;2023-07-24T03:16:22;9.88;;;3.83;;
54557;SDS011;40452;50.080;20.040;2023-07-24T03:18:47;5.53;;;3.80;;
54557;SDS011;40452;50.080;20.040;2023-07-24T03:21:13;6.07;;;3.38;;
54557;SDS011;40452;50.080;20.040;2023-07-24T03:23:39;8.20;;;3.65;;
54557;SDS011;40452;50.080;20.040;2023-07-24T03:26:04;7.43;;;3.70;;
54557;SDS011;40452;50.080;20.040;2023-07-24T03:28:30;7.35;;;3.80;;
54557;SDS011;40452;50.080;20.040;2023-07-24T03:30:55;10.52;;;4.10;;
54557;SDS011;40452;50.080;20.040;2023-07-24T03:33:21;7.45;;;3.92;;
54557;SDS011;40452;50.080;20.040;2023-07-24T03:35:46;7.30;;;3.72;;
54557;SDS011;40452;50.080;20.040;2023-07-24T03:38:12;15.88;;;3.90;;
54557;SDS011;40452;50.080;20.040;2023-07-24T03:40:37;7.18;;;4.03;;
54557;SDS011;40452;50.080;20.040;2023-07-24T03:43:03;10.43;;;4.68;;
54557;SDS011;40452;50.080;20.040;2023-07-24T03:45:29;12.98;;;4.50;;
54557;SDS011;40452;50.080;20.040;2023-07-24T03:47:56;9.75;;;4.32;;
54557;SDS011;40452;50.080;20.040;2023-07-24T03:50:21;9.32;;;4.30;;
54557;SDS011;40452;50.080;20.040;2023-07-24T03:52:47;8.07;;;4.70;;
54557;SDS011;40452;50.080;20.040;2023-07-24T03:55:12;12.07;;;4.80;;
54557;SDS011;40452;50.080;20.040;2023-07-24T03:57:38;7.35;;;4.10;;
54557;SDS011;40452;50.080;20.040;2023-07-24T04:00:04;8.23;;;3.92;;
54557;SDS011;40452;50.080;20.040;2023-07-24T04:02:30;9.02;;;4.18;;
54557;SDS011;40452;50.080;20.040;2023-07-24T04:04:56;5.82;;;3.85;;
54557;SDS011;40452;50.080;20.040;2023-07-24T04:07:21;9.45;;;4.20;;
54557;SDS011;40452;50.080;20.040;2023-07-24T04:09:47;8.55;;;4.10;;
54557;SDS011;40452;50.080;20.040;2023-07-24T04:12:14;8.10;;;4.45;;
54557;SDS011;40452;50.080;20.040;2023-07-24T04:14:39;8.88;;;4.20;;
54557;SDS011;40452;50.080;20.040;2023-07-24T04:17:05;8.73;;;4.10;;
54557;SDS011;40452;50.080;20.040;2023-07-24T04:19:30;8.05;;;4.22;;
54557;SDS011;40452;50.080;20.040;2023-07-24T04:21:56;7.03;;;4.07;;
54557;SDS011;40452;50.080;20.040;2023-07-24T04:24:21;10.15;;;4.32;;
54557;SDS011;40452;50.080;20.040;2023-07-24T04:26:50;6.80;;;4.00;;
54557;SDS011;40452;50.080;20.040;2023-07-24T04:29:16;8.27;;;4.47;;
54557;SDS011;40452;50.080;20.040;2023-07-24T04:31:41;8.50;;;4.00;;
54557;SDS011;40452;50.080;20.040;2023-07-24T04:34:07;10.07;;;4.50;;
54557;SDS011;40452;50.080;20.040;2023-07-24T04:36:32;8.00;;;4.28;;
54557;SDS011;40452;50.080;20.040;2023-07-24T04:38:58;5.75;;;4.00;;
54557;SDS011;40452;50.080;20.040;2023-07-24T04:41:23;8.80;;;4.30;;
54557;SDS011;40452;50.080;20.040;2023-07-24T04:43:49;9.88;;;4.07;;
54557;SDS011;40452;50.080;20.040;2023-07-24T04:46:14;10.30;;;4.28;;
54557;SDS011;40452;50.080;20.040;2023-07-24T04:48:40;6.82;;;4.00;;
54557;SDS011;40452;50.080;20.040;2023-07-24T04:51:05;7.18;;;3.78;;
54557;SDS011;40452;50.080;20.040;2023-07-24T04:53:31;10.48;;;4.55;;
54557;SDS011;40452;50.080;20.040;2023-07-24T04:55:56;7.43;;;4.57;;
54557;SDS011;40452;50.080;20.040;2023-07-24T04:58:22;11.57;;;4.78;;
54557;SDS011;40452;50.080;20.040;2023-07-24T05:00:48;8.52;;;4.80;;
54557;SDS011;40452;50.080;20.040;2023-07-24T05:03:13;6.70;;;4.60;;
54557;SDS011;40452;50.080;20.040;2023-07-24T05:05:41;8.82;;;4.30;;
54557;SDS011;40452;50.080;20.040;2023-07-24T05:08:07;9.20;;;4.43;;
54557;SDS011;40452;50.080;20.040;2023-07-24T05:10:36;32.92;;;5.35;;
54557;SDS011;40452;50.080;20.040;2023-07-24T05:13:01;10.32;;;4.82;;
54557;SDS011;40452;50.080;20.040;2023-07-24T05:15:27;9.57;;;5.13;;
54557;SDS011;40452;50.080;20.040;2023-07-24T05:17:53;13.15;;;4.72;;
54557;SDS011;40452;50.080;20.040;2023-07-24T05:20:18;11.75;;;4.45;;
54557;SDS011;40452;50.080;20.040;2023-07-24T05:22:44;7.25;;;4.38;;
54557;SDS011;40452;50.080;20.040;2023-07-24T05:25:10;6.45;;;3.90;;
54557;SDS011;40452;50.080;20.040;2023-07-24T05:27:35;9.63;;;3.92;;
54557;SDS011;40452;50.080;20.040;2023-07-24T05:30:01;7.82;;;4.10;;
54557;SDS011;40452;50.080;20.040;2023-07-24T05:32:27;8.70;;;4.05;;
54557;SDS011;40452;50.080;20.040;2023-07-24T05:34:53;7.00;;;4.15;;
54557;SDS011;40452;50.080;20.040;2023-07-24T12:29:42;8.35;;;5.60;;
54557;SDS011;40452;50.080;20.040;2023-07-24T12:32:08;7.65;;;5.05;;
54557;SDS011;40452;50.080;20.040;2023-07-24T12:34:33;9.15;;;5.63;;
54557;SDS011;40452;50.080;20.040;2023-07-24T12:36:59;8.98;;;5.70;;
54557;SDS011;40452;50.080;20.040;2023-07-24T12:39:24;8.70;;;5.50;;
54557;SDS011;40452;50.080;20.040;2023-07-24T12:41:50;9.95;;;5.53;;
54557;SDS011;40452;50.080;20.040;2023-07-24T12:44:15;12.60;;;6.40;;
54557;SDS011;40452;50.080;20.040;2023-07-24T12:46:41;11.68;;;6.53;;
54557;SDS011;40452;50.080;20.040;2023-07-24T12:49:06;11.15;;;6.50;;
54557;SDS011;40452;50.080;20.040;2023-07-24T12:51:32;12.55;;;6.15;;
54557;SDS011;40452;50.080;20.040;2023-07-24T12:53:58;11.85;;;6.28;;
54557;SDS011;40452;50.080;20.040;2023-07-24T12:56:26;10.70;;;6.18;;
54557;SDS011;40452;50.080;20.040;2023-07-24T12:58:52;13.85;;;6.60;;
54557;SDS011;40452;50.080;20.040;2023-07-24T13:01:17;15.25;;;6.65;;
54557;SDS011;40452;50.080;20.040;2023-07-24T13:03:43;10.82;;;6.70;;
54557;SDS011;40452;50.080;20.040;2023-07-24T13:06:08;10.45;;;6.10;;
54557;SDS011;40452;50.080;20.040;2023-07-24T13:08:34;11.82;;;6.35;;
54557;SDS011;40452;50.080;20.040;2023-07-24T13:10:59;12.48;;;6.35;;
54557;SDS011;40452;50.080;20.040;2023-07-24T13:13:25;12.80;;;6.60;;
54557;SDS011;40452;50.080;20.040;2023-07-24T13:15:50;12.38;;;6.50;;
54557;SDS011;40452;50.080;20.040;2023-07-24T13:18:16;10.68;;;6.47;;
54557;SDS011;40452;50.080;20.040;2023-07-24T13:20:44;11.07;;;6.50;;
54557;SDS011;40452;50.080;20.040;2023-07-24T13:23:10;12.55;;;6.43;;
54557;SDS011;40452;50.080;20.040;2023-07-24T13:25:36;10.85;;;6.50;;
54557;SDS011;40452;50.080;20.040;2023-07-24T13:28:01;10.65;;;6.30;;
54557;SDS011;40452;50.080;20.040;2023-07-24T13:30:27;10.00;;;6.28;;
54557;SDS011;40452;50.080;20.040;2023-07-24T13:32:53;14.52;;;6.10;;
54557;SDS011;40452;50.080;20.040;2023-07-24T13:35:18;9.52;;;6.38;;
54557;SDS011;40452;50.080;20.040;2023-07-24T13:37:44;11.35;;;7.00;;
54557;SDS011;40452;50.080;20.040;2023-07-24T13:40:09;12.57;;;6.88;;
54557;SDS011;40452;50.080;20.040;2023-07-24T13:42:35;14.88;;;6.90;;
54557;SDS011;40452;50.080;20.040;2023-07-24T13:45:01;14.35;;;6.72;;
54557;SDS011;40452;50.080;20.040;2023-07-24T13:47:27;12.25;;;6.50;;
54557;SDS011;40452;50.080;20.040;2023-07-24T13:49:52;11.48;;;6.60;;
54557;SDS011;40452;50.080;20.040;2023-07-24T13:52:18;10.68;;;6.10;;
54557;SDS011;40452;50.080;20.040;2023-07-24T13:54:43;12.57;;;6.45;;
54557;SDS011;40452;50.080;20.040;2023-07-24T13:57:09;11.57;;;6.65;;
54557;SDS011;40452;50.080;20.040;2023-07-24T13:59:35;11.68;;;7.18;;
54557;SDS011;40452;50.080;20.040;2023-07-24T14:02:03;14.25;;;6.78;;
54557;SDS011;40452;50.080;20.040;2023-07-24T14:04:28;13.68;;;6.80;;
54557;SDS011;40452;50.080;20.040;2023-07-24T14:06:54;12.63;;;6.93;;
54557;SDS011;40452;50.080;20.040;2023-07-24T14:09:19;11.70;;;6.30;;
54557;SDS011;40452;50.080;20.040;2023-07-24T14:11:45;12.63;;;6.25;;
54557;SDS011;40452;50.080;20.040;2023-07-24T14:14:11;11.88;;;6.45;;
54557;SDS011;40452;50.080;20.040;2023-07-24T14:16:36;9.45;;;6.43;;
54557;SDS011;40452;50.080;20.040;2023-07-24T14:19:02;13.15;;;6.32;;
54557;SDS011;40452;50.080;20.040;2023-07-24T14:21:28;12.25;;;6.72;;
54557;SDS011;40452;50.080;20.040;2023-07-24T14:23:53;8.57;;;6.05;;
54557;SDS011;40452;50.080;20.040;2023-07-24T14:26:19;10.38;;;6.60;;
54557;SDS011;40452;50.080;20.040;2023-07-24T14:28:44;11.38;;;6.55;;
54557;SDS011;40452;50.080;20.040;2023-07-24T14:31:10;11.13;;;6.53;;
54557;SDS011;40452;50.080;20.040;2023-07-24T14:33:36;9.50;;;5.53;;
54557;SDS011;40452;50.080;20.040;2023-07-24T14:36:02;11.25;;;6.32;;
54557;SDS011;40452;50.080;20.040;2023-07-24T14:38:27;11.88;;;6.30;;
54557;SDS011;40452;50.080;20.040;2023-07-24T14:40:53;10.32;;;5.80;;
54557;SDS011;40452;50.080;20.040;2023-07-24T14:43:19;12.15;;;6.47;;
54557;SDS011;40452;50.080;20.040;2023-07-24T14:45:44;11.40;;;6.28;;
54557;SDS011;40452;50.080;20.040;2023-07-24T14:48:10;12.32;;;6.25;;
54557;SDS011;40452;50.080;20.040;2023-07-24T14:50:37;11.82;;;6.90;;
54557;SDS011;40452;50.080;20.040;2023-07-24T14:53:03;15.10;;;6.38;;
54557;SDS011;40452;50.080;20.040;2023-07-24T14:55:29;11.00;;;7.00;;
54557;SDS011;40452;50.080;20.040;2023-07-24T14:57:54;12.00;;;7.05;;
54557;SDS011;40452;50.080;20.040;2023-07-24T15:00:20;11.70;;;7.15;;
54557;SDS011;40452;50.080;20.040;2023-07-24T15:02:45;10.07;;;7.15;;
54557;SDS011;40452;50.080;20.040;2023-07-24T15:05:11;11.15;;;6.90;;
54557;SDS011;40452;50.080;20.040;2023-07-24T15:07:36;14.73;;;7.20;;
54557;SDS011;40452;50.080;20.040;2023-07-24T15:10:02;11.35;;;6.65;;
54557;SDS011;40452;50.080;20.040;2023-07-24T15:12:28;10.85;;;6.85;;
54557;SDS011;40452;50.080;20.040;2023-07-24T15:14:53;10.07;;;6.80;;
54557;SDS011;40452;50.080;20.040;2023-07-24T15:17:19;10.05;;;6.88;;
54557;SDS011;40452;50.080;20.040;2023-07-24T15:19:45;11.18;;;6.93;;
54557;SDS011;40452;50.080;20.040;2023-07-24T15:22:10;10.23;;;6.93;;
54557;SDS011;40452;50.080;20.040;2023-07-24T15:24:36;14.35;;;7.28;;
54557;SDS011;40452;50.080;20.040;2023-07-24T15:27:01;14.18;;;6.90;;
54557;SDS011;40452;50.080;20.040;2023-07-24T15:29:33;9.73;;;6.35;;
54557;SDS011;40452;50.080;20.040;2023-07-24T15:31:59;16.60;;;7.00;;
54557;SDS011;40452;50.080;20.040;2023-07-24T15:34:25;10.05;;;6.35;;
54557;SDS011;40452;50.080;20.040;2023-07-24T15:36:50;14.40;;;6.97;;
54557;SDS011;40452;50.080;20.040;2023-07-24T15:39:16;11.60;;;6.22;;
54557;SDS011;40452;50.080;20.040;2023-07-24T15:41:41;11.48;;;6.30;;
54557;SDS011;40452;50.080;20.040;2023-07-24T15:44:07;11.38;;;6.47;;
54557;SDS011;40452;50.080;20.040;2023-07-24T15:46:32;13.10;;;7.30;;
54557;SDS011;40452;50.080;20.040;2023-07-24T15:48:58;15.70;;;7.35;;
54557;SDS011;40452;50.080;20.040;2023-07-24T15:51:25;14.27;;;7.45;;
54557;SDS011;40452;50.080;20.040;2023-07-24T15:53:51;18.92;;;7.78;;
54557;SDS011;40452;50.080;20.040;2023-07-24T15:56:17;15.73;;;7.43;;
54557;SDS011;40452;50.080;20.040;2023-07-24T15:58:43;14.43;;;7.40;;
54557;SDS011;40452;50.080;20.040;2023-07-24T16:01:09;15.02;;;7.60;;
54557;SDS011;40452;50.080;20.040;2023-07-24T16:03:35;17.48;;;8.63;;
54557;SDS011;40452;50.080;20.040;2023-07-24T16:06:00;17.27;;;9.15;;
54557;SDS011;40452;50.080;20.040;2023-07-24T16:08:26;20.52;;;9.05;;
54557;SDS011;40452;50.080;20.040;2023-07-24T16:10:51;19.83;;;9.73;;
54557;SDS011;40452;50.080;20.040;2023-07-24T16:13:17;17.95;;;9.45;;
54557;SDS011;40452;50.080;20.040;2023-07-24T16:15:42;17.83;;;9.20;;
54557;SDS011;40452;50.080;20.040;2023-07-24T16:18:08;17.27;;;9.02;;
54557;SDS011;40452;50.080;20.040;2023-07-24T16:20:33;16.13;;;8.32;;
54557;SDS011;40452;50.080;20.040;2023-07-24T16:23:00;17.65;;;9.05;;
54557;SDS011;40452;50.080;20.040;2023-07-24T16:25:25;14.18;;;8.43;;
54557;SDS011;40452;50.080;20.040;2023-07-24T16:27:51;13.15;;;8.05;;
54557;SDS011;40452;50.080;20.040;2023-07-24T16:30:16;14.98;;;7.80;;
54557;SDS011;40452;50.080;20.040;2023-07-24T16:32:42;11.80;;;7.15;;
54557;SDS011;40452;50.080;20.040;2023-07-24T16:35:09;13.90;;;7.28;;
54557;SDS011;40452;50.080;20.040;2023-07-24T16:37:35;12.30;;;7.40;;
54557;SDS011;40452;50.080;20.040;2023-07-24T16:40:01;12.20;;;7.43;;
54557;SDS011;40452;50.080;20.040;2023-07-24T16:42:27;11.45;;;7.35;;
54557;SDS011;40452;50.080;20.040;2023-07-24T16:44:53;10.55;;;7.32;;
54557;SDS011;40452;50.080;20.040;2023-07-24T16:47:18;12.32;;;7.55;;
54557;SDS011;40452;50.080;20.040;2023-07-24T16:49:44;13.40;;;7.32;;
54557;SDS011;40452;50.080;20.040;2023-07-24T16:52:09;18.23;;;6.97;;
54557;SDS011;40452;50.080;20.040;2023-07-24T16:54:35;11.65;;;6.78;;
54557;SDS011;40452;50.080;20.040;2023-07-24T16:57:01;10.93;;;6.85;;
54557;SDS011;40452;50.080;20.040;2023-07-24T16:59:27;13.10;;;6.68;;
54557;SDS011;40452;50.080;20.040;2023-07-24T17:01:54;12.15;;;7.15;;
54557;SDS011;40452;50.080;20.040;2023-07-24T17:04:19;11.70;;;7.03;;
54557;SDS011;40452;50.080;20.040;2023-07-24T17:06:45;12.95;;;6.63;;
54557;SDS011;40452;50.080;20.040;2023-07-24T17:09:11;10.95;;;6.93;;
54557;SDS011;40452;50.080;20.040;2023-07-24T17:11:37;14.27;;;7.50;;
54557;SDS011;40452;50.080;20.040;2023-07-24T17:14:03;14.13;;;7.20;;
54557;SDS011;40452;50.080;20.040;2023-07-24T17:16:28;10.80;;;6.90;;
54557;SDS011;40452;50.080;20.040;2023-07-24T17:18:55;10.02;;;6.97;;
54557;SDS011;40452;50.080;20.040;2023-07-24T17:21:21;13.27;;;6.60;;
54557;SDS011;40452;50.080;20.040;2023-07-24T17:23:47;11.43;;;5.95;;
54557;SDS011;40452;50.080;20.040;2023-07-24T17:26:13;14.60;;;5.53;;
54557;SDS011;40452;50.080;20.040;2023-07-24T17:28:38;11.77;;;4.78;;
54557;SDS011;40452;50.080;20.040;2023-07-24T17:31:04;9.20;;;4.13;;
54557;SDS011;40452;50.080;20.040;2023-07-24T17:33:30;10.52;;;3.70;;
54557;SDS011;40452;50.080;20.040;2023-07-24T17:35:55;8.13;;;4.25;;
54557;SDS011;40452;50.080;20.040;2023-07-24T17:38:21;11.52;;;4.40;;
54557;SDS011;40452;50.080;20.040;2023-07-24T17:40:47;10.55;;;4.38;;
54557;SDS011;40452;50.080;20.040;2023-07-24T17:43:13;7.30;;;3.67;;
54557;SDS011;40452;50.080;20.040;2023-07-24T17:45:38;9.82;;;3.83;;
54557;SDS011;40452;50.080;20.040;2023-07-24T17:48:04;13.70;;;5.18;;
54557;SDS011;40452;50.080;20.040;2023-07-24T17:50:30;13.05;;;4.63;;
54557;SDS011;40452;50.080;20.040;2023-07-24T17:52:56;14.52;;;5.07;;
54557;SDS011;40452;50.080;20.040;2023-07-24T17:55:21;11.70;;;5.00;;
54557;SDS011;40452;50.080;20.040;2023-07-24T17:57:47;10.25;;;5.25;;
54557;SDS011;40452;50.080;20.040;2023-07-24T18:00:18;12.27;;;5.30;;
54557;SDS011;40452;50.080;20.040;2023-07-24T18:02:43;12.48;;;5.38;;
54557;SDS011;40452;50.080;20.040;2023-07-24T18:05:09;12.55;;;5.30;;
54557;SDS011;40452;50.080;20.040;2023-07-24T18:07:35;18.30;;;5.15;;
54557;SDS011;40452;50.080;20.040;2023-07-24T18:10:04;12.85;;;5.03;;
54557;SDS011;40452;50.080;20.040;2023-07-24T18:12:31;9.27;;;5.00;;
54557;SDS011;40452;50.080;20.040;2023-07-24T18:14:57;9.27;;;5.05;;
54557;SDS011;40452;50.080;20.040;2023-07-24T18:17:23;10.25;;;4.30;;
54557;SDS011;40452;50.080;20.040;2023-07-24T18:19:48;9.57;;;4.95;;
54557;SDS011;40452;50.080;20.040;2023-07-24T18:22:14;10.88;;;4.85;;
54557;SDS011;40452;50.080;20.040;2023-07-24T18:24:40;11.88;;;4.93;;
54557;SDS011;40452;50.080;20.040;2023-07-24T18:27:07;11.35;;;4.78;;
54557;SDS011;40452;50.080;20.040;2023-07-24T18:29:33;11.35;;;4.88;;
54557;SDS011;40452;50.080;20.040;2023-07-24T18:31:59;12.10;;;4.97;;
54557;SDS011;40452;50.080;20.040;2023-07-24T18:34:25;11.25;;;5.13;;
54557;SDS011;40452;50.080;20.040;2023-07-24T18:36:50;11.43;;;5.68;;
54557;SDS011;40452;50.080;20.040;2023-07-24T18:39:16;9.98;;;4.93;;
54557;SDS011;40452;50.080;20.040;2023-07-24T18:41:41;8.77;;;5.30;;
54557;SDS011;40452;50.080;20.040;2023-07-24T18:44:07;11.25;;;5.40;;
54557;SDS011;40452;50.080;20.040;2023-07-24T18:46:33;9.57;;;5.50;;
54557;SDS011;40452;50.080;20.040;2023-07-24T18:48:58;11.45;;;5.80;;
54557;SDS011;40452;50.080;20.040;2023-07-24T18:51:24;13.35;;;5.47;;
54557;SDS011;40452;50.080;20.040;2023-07-24T18:53:50;11.85;;;5.60;;
54557;SDS011;40452;50.080;20.040;2023-07-24T18:56:19;9.45;;;6.05;;
54557;SDS011;40452;50.080;20.040;2023-07-24T18:58:45;9.07;;;5.47;;
54557;SDS011;40452;50.080;20.040;2023-07-24T19:01:13;10.57;;;5.75;;
54557;SDS011;40452;50.080;20.040;2023-07-24T19:03:39;8.82;;;5.50;;
54557;SDS011;40452;50.080;20.040;2023-07-24T19:06:08;9.60;;;5.80;;
54557;SDS011;40452;50.080;20.040;2023-07-24T19:08:34;12.63;;;5.93;;
54557;SDS011;40452;50.080;20.040;2023-07-24T19:11:00;11.70;;;5.80;;
54557;SDS011;40452;50.080;20.040;2023-07-24T19:13:26;11.18;;;5.97;;
54557;SDS011;40452;50.080;20.040;2023-07-24T19:15:55;9.10;;;5.50;;
54557;SDS011;40452;50.080;20.040;2023-07-24T19:18:21;9.82;;;6.07;;
54557;SDS011;40452;50.080;20.040;2023-07-24T19:20:46;11.48;;;5.95;;
54557;SDS011;40452;50.080;20.040;2023-07-24T19:23:12;9.57;;;5.70;;
54557;SDS011;40452;50.080;20.040;2023-07-24T19:25:37;8.73;;;5.28;;
54557;SDS011;40452;50.080;20.040;2023-07-24T19:28:03;8.82;;;5.25;;
54557;SDS011;40452;50.080;20.040;2023-07-24T19:30:29;12.30;;;5.63;;
54557;SDS011;40452;50.080;20.040;2023-07-24T19:32:54;11.27;;;6.30;;
54557;SDS011;40452;50.080;20.040;2023-07-24T19:35:20;10.80;;;5.70;;
54557;SDS011;40452;50.080;20.040;2023-07-24T19:37:45;9.18;;;5.47;;
54557;SDS011;40452;50.080;20.040;2023-07-24T19:40:12;9.00;;;5.30;;
54557;SDS011;40452;50.080;20.040;2023-07-24T19:42:38;8.45;;;5.63;;
54557;SDS011;40452;50.080;20.040;2023-07-24T19:45:03;10.35;;;6.07;;
54557;SDS011;40452;50.080;20.040;2023-07-24T19:47:29;9.93;;;5.80;;
54557;SDS011;40452;50.080;20.040;2023-07-24T19:49:55;11.07;;;6.25;;
54557;SDS011;40452;50.080;20.040;2023-07-24T19:52:20;9.43;;;5.60;;
54557;SDS011;40452;50.080;20.040;2023-07-24T19:54:47;11.30;;;6.60;;
54557;SDS011;40452;50.080;20.040;2023-07-24T19:57:14;11.15;;;6.57;;
54557;SDS011;40452;50.080;20.040;2023-07-24T19:59:40;9.95;;;6.30;;
54557;SDS011;40452;50.080;20.040;2023-07-24T20:02:05;9.88;;;5.93;;
54557;SDS011;40452;50.080;20.040;2023-07-24T20:04:32;10.35;;;5.88;;
54557;SDS011;40452;50.080;20.040;2023-07-24T20:06:57;12.88;;;6.80;;
54557;SDS011;40452;50.080;20.040;2023-07-24T20:09:23;11.00;;;6.85;;
54557;SDS011;40452;50.080;20.040;2023-07-24T20:11:48;10.45;;;6.82;;
54557;SDS011;40452;50.080;20.040;2023-07-24T20:14:14;14.60;;;6.97;;
54557;SDS011;40452;50.080;20.040;2023-07-24T20:16:40;11.52;;;6.65;;
54557;SDS011;40452;50.080;20.040;2023-07-24T20:19:05;12.00;;;6.57;;
54557;SDS011;40452;50.080;20.040;2023-07-24T20:21:31;10.70;;;6.53;;
54557;SDS011;40452;50.080;20.040;2023-07-24T20:24:06;11.77;;;6.70;;
54557;SDS011;40452;50.080;20.040;2023-07-24T20:26:32;9.13;;;6.15;;
54557;SDS011;40452;50.080;20.040;2023-07-24T20:28:58;11.90;;;6.30;;
